createdAt,value
2023-03-26T00:00:01.373Z,76.8496
2023-03-26T00:01:02.058Z,76.4654
2023-03-26T00:02:02.835Z,76.0290
2023-03-26T00:03:03.559Z,76.7672
2023-03-26T00:04:04.328Z,76.4516
2023-03-26T00:05:05.008Z,76.3275
2023-03-26T00:06:05.700Z,77.2179
2023-03-26T00:10:08.004Z,76.5169
2023-03-26T00:11:08.681Z,76.4649
2023-03-26T00:12:09.389Z,76.5696
2023-03-26T00:13:10.087Z,76.8172
2023-03-26T00:14:10.795Z,75.9036
2023-03-26T00:15:11.502Z,76.3342
2023-03-26T00:16:12.206Z,76.7565
2023-03-26T00:17:12.917Z,76.3750
2023-03-26T00:18:13.611Z,75.5466
2023-03-26T00:19:14.298Z,74.9148
2023-03-26T00:20:14.986Z,75.1493
2023-03-26T00:21:15.699Z,75.6133
2023-03-26T00:22:16.391Z,75.6234
2023-03-26T00:23:17.099Z,76.3151
2023-03-26T00:24:17.786Z,76.5197
2023-03-26T00:25:18.479Z,77.2285
2023-03-26T00:26:19.201Z,77.6568
2023-03-26T00:27:19.867Z,76.0238
2023-03-26T00:29:21.127Z,77.8708
2023-03-26T00:30:21.853Z,77.1896
2023-03-26T00:31:22.725Z,76.8280
2023-03-26T00:32:23.530Z,76.5972
2023-03-26T00:34:24.950Z,77.4833
2023-03-26T00:35:25.705Z,77.2246
2023-03-26T00:36:26.587Z,75.8474
2023-03-26T00:37:26.658Z,75.2447
2023-03-26T00:38:27.409Z,76.1122
2023-03-26T00:39:28.076Z,75.7438
2023-03-26T00:40:28.792Z,75.8692
2023-03-26T00:41:29.458Z,75.0513
2023-03-26T00:42:30.182Z,75.6920
2023-03-26T00:43:30.892Z,74.6151
2023-03-26T00:44:31.616Z,74.9763
2023-03-26T00:45:32.301Z,75.3486
2023-03-26T00:46:33.081Z,77.0049
2023-03-26T00:47:33.764Z,78.5674
2023-03-26T00:48:44.478Z,78.0033
2023-03-26T00:49:36.336Z,76.5414
2023-03-26T00:50:35.907Z,76.7786
2023-03-26T00:51:36.708Z,77.4455
2023-03-26T00:52:37.517Z,78.5288
2023-03-26T00:53:38.308Z,77.2204
2023-03-26T00:54:39.117Z,78.2834
2023-03-26T00:55:39.940Z,76.4889
2023-03-26T00:56:40.800Z,77.2802
2023-03-26T00:57:41.597Z,77.6794
2023-03-26T00:58:42.462Z,78.6931
2023-03-26T00:59:43.239Z,78.5143
2023-03-26T01:00:46.358Z,80.1303
2023-03-26T01:01:44.207Z,78.1635
2023-03-26T01:02:45.264Z,77.8941
2023-03-26T01:03:56.664Z,78.8653
2023-03-26T01:04:48.250Z,77.4546
2023-03-26T01:05:47.943Z,77.5127
2023-03-26T01:06:48.727Z,78.7536
2023-03-26T01:07:49.535Z,78.6160
2023-03-26T01:08:50.404Z,78.8555
2023-03-26T01:09:51.184Z,77.7225
2023-03-26T01:10:52.011Z,78.4721
2023-03-26T01:11:52.814Z,79.7051
2023-03-26T01:12:53.617Z,79.3522
2023-03-26T01:13:54.393Z,79.5537
2023-03-26T01:14:55.225Z,80.0966
2023-03-26T01:15:56.219Z,79.4547
2023-03-26T01:16:57.164Z,79.4148
2023-03-26T01:17:58.063Z,79.5922
2023-03-26T01:18:58.924Z,79.3724
2023-03-26T01:19:59.726Z,79.3430
2023-03-26T01:21:00.542Z,80.0203
2023-03-26T01:22:01.344Z,81.2029
2023-03-26T01:23:02.203Z,81.3531
2023-03-26T01:24:03.044Z,80.3235
2023-03-26T01:25:03.821Z,80.7477
2023-03-26T01:26:04.637Z,81.1977
2023-03-26T01:27:05.468Z,80.7647
2023-03-26T01:28:06.254Z,80.9146
2023-03-26T01:29:07.068Z,80.6410
2023-03-26T01:30:07.877Z,79.8015
2023-03-26T01:31:08.664Z,80.6252
2023-03-26T01:33:10.258Z,80.9541
2023-03-26T01:34:11.076Z,81.8163
2023-03-26T01:35:11.855Z,80.7331
2023-03-26T01:36:12.683Z,82.6902
2023-03-26T01:37:13.474Z,82.2056
2023-03-26T01:38:14.273Z,81.6282
2023-03-26T01:39:15.195Z,81.9814
2023-03-26T01:40:15.972Z,81.6786
2023-03-26T01:41:16.769Z,81.5605
2023-03-26T01:42:17.540Z,80.4278
2023-03-26T01:43:18.440Z,80.8119
2023-03-26T01:44:19.273Z,80.4379
2023-03-26T01:45:20.077Z,80.7972
2023-03-26T01:46:20.928Z,81.2988
2023-03-26T01:47:21.790Z,81.3012
2023-03-26T01:48:22.572Z,82.5338
2023-03-26T01:49:23.446Z,83.0107
2023-03-26T01:50:24.222Z,82.3786
2023-03-26T01:51:25.041Z,80.7659
2023-03-26T01:52:25.832Z,82.2879
2023-03-26T01:54:27.325Z,82.2268
2023-03-26T01:55:28.127Z,82.4598
2023-03-26T01:56:28.946Z,81.1153
2023-03-26T01:57:29.764Z,82.5629
2023-03-26T01:59:31.262Z,82.7289
2023-03-26T02:00:32.062Z,83.2316
2023-03-26T02:02:33.730Z,83.9450
2023-03-26T02:03:34.748Z,84.0259
2023-03-26T02:04:35.556Z,82.5320
2023-03-26T02:05:36.380Z,81.6765
2023-03-26T02:06:36.523Z,83.6193
2023-03-26T02:07:37.312Z,82.5275
2023-03-26T02:08:38.152Z,82.2063
2023-03-26T02:09:38.981Z,81.7631
2023-03-26T02:10:39.784Z,81.8194
2023-03-26T02:11:40.609Z,82.6016
2023-03-26T02:12:41.424Z,82.0699
2023-03-26T02:13:42.214Z,81.2744
2023-03-26T02:14:43.099Z,80.6757
2023-03-26T02:15:43.862Z,81.1582
2023-03-26T02:16:44.694Z,81.8116
2023-03-26T02:17:45.618Z,81.5447
2023-03-26T02:18:46.430Z,81.0668
2023-03-26T02:19:47.264Z,81.7689
2023-03-26T02:20:48.069Z,82.6183
2023-03-26T02:21:48.893Z,82.5402
2023-03-26T02:22:49.693Z,81.7165
2023-03-26T02:23:50.481Z,82.3573
2023-03-26T02:24:51.323Z,82.5311
2023-03-26T02:25:52.548Z,84.2918
2023-03-26T02:26:52.508Z,84.2147
2023-03-26T02:27:53.361Z,84.1458
2023-03-26T02:28:54.156Z,83.3663
2023-03-26T02:29:55.009Z,83.6329
2023-03-26T02:30:55.850Z,83.7798
2023-03-26T02:31:56.671Z,82.7695
2023-03-26T02:32:57.543Z,84.1791
2023-03-26T02:33:58.379Z,84.6859
2023-03-26T02:34:59.219Z,84.1182
2023-03-26T02:36:00.056Z,83.8370
2023-03-26T02:37:00.960Z,83.1551
2023-03-26T02:38:01.788Z,82.9752
2023-03-26T02:39:02.600Z,83.5919
2023-03-26T02:40:03.416Z,84.3523
2023-03-26T02:41:04.343Z,84.1335
2023-03-26T02:42:05.141Z,83.6639
2023-03-26T02:43:05.977Z,83.4075
2023-03-26T02:44:06.786Z,82.6974
2023-03-26T02:45:07.632Z,82.9062
2023-03-26T02:46:08.480Z,82.8410
2023-03-26T02:47:09.325Z,81.9079
2023-03-26T02:48:10.121Z,81.4886
2023-03-26T02:49:11.170Z,81.7894
2023-03-26T02:50:12.066Z,81.2383
2023-03-26T02:51:12.922Z,81.0993
2023-03-26T02:52:13.868Z,80.8064
2023-03-26T02:54:15.354Z,80.7853
2023-03-26T02:55:16.216Z,81.3433
2023-03-26T02:56:17.023Z,81.7573
2023-03-26T02:57:17.836Z,80.5574
2023-03-26T02:58:18.668Z,80.9422
2023-03-26T03:00:20.198Z,81.2562
2023-03-26T03:01:21.052Z,80.5387
2023-03-26T03:02:21.852Z,81.1950
2023-03-26T03:03:22.703Z,81.5082
2023-03-26T03:04:23.450Z,81.5616
2023-03-26T03:06:24.933Z,81.3601
2023-03-26T03:07:25.738Z,80.8018
2023-03-26T03:08:26.522Z,82.4045
2023-03-26T03:09:27.351Z,82.0534
2023-03-26T03:10:28.177Z,82.2627
2023-03-26T03:11:29.001Z,82.2220
2023-03-26T03:12:29.797Z,82.2146
2023-03-26T03:13:30.617Z,82.7265
2023-03-26T03:14:31.432Z,83.3837
2023-03-26T03:15:32.215Z,82.9468
2023-03-26T03:16:33.035Z,82.7580
2023-03-26T03:17:33.891Z,83.0216
2023-03-26T03:18:34.749Z,84.4047
2023-03-26T03:19:35.543Z,84.6432
2023-03-26T03:20:36.327Z,85.8235
2023-03-26T03:21:37.136Z,85.0838
2023-03-26T03:22:37.929Z,86.0682
2023-03-26T03:23:38.751Z,85.5979
2023-03-26T03:24:39.582Z,87.3456
2023-03-26T03:25:40.413Z,85.4392
2023-03-26T03:26:41.217Z,86.8293
2023-03-26T03:27:42.089Z,85.6209
2023-03-26T03:28:42.873Z,86.3413
2023-03-26T03:29:43.648Z,86.1980
2023-03-26T03:30:44.487Z,86.3925
2023-03-26T03:31:45.284Z,85.2845
2023-03-26T03:32:46.142Z,85.1568
2023-03-26T03:33:47.010Z,85.0094
2023-03-26T03:34:47.758Z,86.6564
2023-03-26T03:35:48.718Z,84.2895
2023-03-26T03:36:49.584Z,85.9121
2023-03-26T03:37:50.547Z,85.3475
2023-03-26T03:38:51.479Z,85.5968
2023-03-26T03:39:52.434Z,84.3213
2023-03-26T03:40:53.404Z,84.2820
2023-03-26T03:41:54.320Z,85.0055
2023-03-26T03:42:55.215Z,87.0009
2023-03-26T03:43:56.134Z,86.9347
2023-03-26T03:44:57.030Z,87.8866
2023-03-26T03:45:58.239Z,88.6937
2023-03-26T03:46:58.379Z,88.8773
2023-03-26T03:47:59.396Z,88.8324
2023-03-26T03:49:00.311Z,89.2667
2023-03-26T03:50:01.266Z,88.5461
2023-03-26T03:51:02.203Z,88.6513
2023-03-26T03:52:03.135Z,89.6422
2023-03-26T03:53:04.071Z,89.1554
2023-03-26T03:54:05.024Z,88.5507
2023-03-26T03:55:05.961Z,87.4403
2023-03-26T03:56:06.948Z,86.8906
2023-03-26T03:57:07.897Z,87.4970
2023-03-26T03:58:08.837Z,86.5654
2023-03-26T03:59:09.751Z,86.2125
2023-03-26T04:00:10.685Z,85.3078
2023-03-26T04:01:11.621Z,84.5763
2023-03-26T04:02:12.564Z,85.6604
2023-03-26T04:03:13.559Z,85.0544
2023-03-26T04:04:14.514Z,85.2315
2023-03-26T04:05:15.440Z,85.6302
2023-03-26T04:06:16.432Z,85.3325
2023-03-26T04:07:17.348Z,85.2500
2023-03-26T04:08:18.295Z,85.4622
2023-03-26T04:09:19.237Z,84.5713
2023-03-26T04:10:20.167Z,84.5695
2023-03-26T04:11:21.199Z,85.2601
2023-03-26T04:12:22.117Z,86.0064
2023-03-26T04:13:23.036Z,84.2817
2023-03-26T04:14:23.956Z,84.1771
2023-03-26T04:15:24.873Z,85.3515
2023-03-26T04:16:25.830Z,87.2127
2023-03-26T04:17:26.898Z,85.7486
2023-03-26T04:18:27.002Z,85.1887
2023-03-26T04:19:27.911Z,85.0003
2023-03-26T04:20:28.890Z,85.9370
2023-03-26T04:21:29.850Z,86.1559
2023-03-26T04:22:30.817Z,86.2073
2023-03-26T04:23:31.702Z,85.8640
2023-03-26T04:24:32.652Z,86.4362
2023-03-26T04:25:33.585Z,86.5412
2023-03-26T04:26:34.506Z,86.4675
2023-03-26T04:27:35.419Z,86.8954
2023-03-26T04:28:36.360Z,84.9489
2023-03-26T04:29:37.287Z,85.9323
2023-03-26T04:30:38.265Z,86.5438
2023-03-26T04:31:39.226Z,85.7413
2023-03-26T04:32:40.214Z,83.3896
2023-03-26T04:33:41.100Z,82.8008
2023-03-26T04:34:42.056Z,83.0066
2023-03-26T04:36:43.790Z,84.7688
2023-03-26T04:37:44.720Z,84.4099
2023-03-26T04:38:45.624Z,84.8997
2023-03-26T04:39:46.590Z,84.7532
2023-03-26T04:40:47.605Z,84.3439
2023-03-26T04:41:48.528Z,84.4850
2023-03-26T04:42:49.596Z,83.5658
2023-03-26T04:44:51.245Z,86.1584
2023-03-26T04:45:52.316Z,85.1350
2023-03-26T04:46:52.329Z,83.3483
2023-03-26T04:47:53.266Z,83.9489
2023-03-26T04:48:54.241Z,83.9529
2023-03-26T04:49:55.179Z,83.6115
2023-03-26T04:50:56.114Z,85.2547
2023-03-26T04:51:57.074Z,84.0913
2023-03-26T04:53:58.812Z,84.1822
2023-03-26T04:54:59.738Z,85.4852
2023-03-26T04:56:00.653Z,86.2740
2023-03-26T04:57:01.667Z,84.6501
2023-03-26T04:58:02.605Z,84.5072
2023-03-26T04:59:03.588Z,83.9728
2023-03-26T05:01:09.890Z,84.6730
2023-03-26T05:02:07.319Z,84.7043
2023-03-26T05:03:07.113Z,84.0243
2023-03-26T05:04:08.076Z,85.6081
2023-03-26T05:05:08.972Z,84.8718
2023-03-26T05:06:09.880Z,84.4702
2023-03-26T05:07:10.816Z,85.1575
2023-03-26T05:08:11.728Z,85.6599
2023-03-26T05:09:12.682Z,84.9303
2023-03-26T05:10:13.628Z,86.4254
2023-03-26T05:11:14.557Z,87.0445
2023-03-26T05:12:15.499Z,86.0007
2023-03-26T05:13:16.455Z,85.2011
2023-03-26T05:14:17.373Z,85.2831
2023-03-26T05:15:18.275Z,86.3308
2023-03-26T05:16:19.261Z,85.7943
2023-03-26T05:17:20.138Z,85.3651
2023-03-26T05:18:21.102Z,84.3151
2023-03-26T05:19:22.033Z,84.2529
2023-03-26T05:20:22.969Z,86.1675
2023-03-26T05:21:23.908Z,85.2314
2023-03-26T05:22:24.844Z,84.7853
2023-03-26T05:23:25.811Z,86.7585
2023-03-26T05:24:26.743Z,85.0993
2023-03-26T05:25:27.703Z,84.3663
2023-03-26T05:26:28.655Z,84.1498
2023-03-26T05:27:29.609Z,83.6102
2023-03-26T05:28:30.509Z,84.7525
2023-03-26T05:29:31.447Z,84.8031
2023-03-26T05:30:32.377Z,84.6094
2023-03-26T05:31:33.320Z,86.5043
2023-03-26T05:32:34.298Z,85.4597
2023-03-26T05:33:35.317Z,85.4757
2023-03-26T05:34:36.323Z,86.2870
2023-03-26T05:35:37.318Z,86.1467
2023-03-26T05:38:39.782Z,83.9930
2023-03-26T05:39:40.746Z,84.3866
2023-03-26T05:40:41.720Z,85.8304
2023-03-26T05:41:42.662Z,86.0518
2023-03-26T05:42:43.744Z,85.1342
2023-03-26T05:43:44.719Z,86.2847
2023-03-26T05:44:45.622Z,87.5659
2023-03-26T05:45:46.577Z,87.6216
2023-03-26T05:46:47.499Z,87.3832
2023-03-26T05:48:49.201Z,89.3658
2023-03-26T05:49:50.145Z,89.1254
2023-03-26T05:50:51.089Z,89.8418
2023-03-26T05:51:53.778Z,90.4916
2023-03-26T05:52:52.795Z,90.4744
2023-03-26T05:53:53.719Z,91.0434
2023-03-26T05:54:54.615Z,91.8121
2023-03-26T05:55:55.588Z,90.8745
2023-03-26T05:56:56.543Z,90.8018
2023-03-26T05:57:57.476Z,91.3865
2023-03-26T05:58:58.431Z,91.2296
2023-03-26T05:59:59.382Z,91.0705
2023-03-26T06:01:00.292Z,92.0085
2023-03-26T06:02:01.276Z,92.4667
2023-03-26T06:03:02.277Z,92.8262
2023-03-26T06:04:03.378Z,92.6838
2023-03-26T06:05:04.566Z,92.9701
2023-03-26T06:07:07.299Z,93.9389
2023-03-26T06:08:22.813Z,94.1742
2023-03-26T06:09:06.412Z,93.9037
2023-03-26T06:10:06.529Z,94.0509
2023-03-26T06:11:06.674Z,94.1941
2023-03-26T06:12:06.681Z,94.2615
2023-03-26T06:13:06.609Z,94.2813
2023-03-26T06:14:07.665Z,94.2565
2023-03-26T06:15:08.931Z,94.2443
2023-03-26T06:16:08.842Z,94.3308
2023-03-26T06:17:09.739Z,94.0257
2023-03-26T06:18:09.614Z,93.6085
2023-03-26T06:19:10.672Z,92.9250
2023-03-26T06:20:10.560Z,91.6943
2023-03-26T06:21:11.598Z,91.3408
2023-03-26T06:22:12.641Z,91.0350
2023-03-26T06:23:13.685Z,91.9871
2023-03-26T06:24:14.720Z,92.4739
2023-03-26T06:26:16.678Z,92.5242
2023-03-26T06:27:17.748Z,91.3186
2023-03-26T06:28:18.782Z,90.9028
2023-03-26T06:29:19.852Z,92.0327
2023-03-26T06:30:20.903Z,92.2648
2023-03-26T06:31:21.898Z,90.5372
2023-03-26T06:32:22.956Z,90.2874
2023-03-26T06:35:25.840Z,92.6863
2023-03-26T06:36:26.891Z,93.0715
2023-03-26T06:37:27.947Z,93.2784
2023-03-26T06:38:28.979Z,93.4961
2023-03-26T06:39:30.005Z,93.5464
2023-03-26T06:40:31.012Z,93.3211
2023-03-26T06:41:32.083Z,93.4382
2023-03-26T06:43:06.914Z,93.5020
2023-03-26T06:43:34.209Z,93.5005
2023-03-26T06:44:34.028Z,93.7795
2023-03-26T06:45:35.083Z,93.9057
2023-03-26T06:46:36.213Z,93.9882
2023-03-26T06:47:37.342Z,93.8442
2023-03-26T06:48:38.464Z,94.0159
2023-03-26T06:49:39.549Z,94.0964
2023-03-26T06:50:40.797Z,94.2711
2023-03-26T06:51:40.665Z,94.3190
2023-03-26T06:52:41.713Z,93.8830
2023-03-26T06:53:42.838Z,93.8827
2023-03-26T06:54:46.478Z,93.3530
2023-03-26T06:55:43.948Z,93.2536
2023-03-26T06:56:45.117Z,93.2446
2023-03-26T06:57:45.113Z,93.4480
2023-03-26T06:58:46.566Z,93.4385
2023-03-26T06:59:51.285Z,93.4174
2023-03-26T07:00:49.996Z,93.5750
2023-03-26T07:01:47.795Z,93.9982
2023-03-26T07:03:07.534Z,94.2085
2023-03-26T07:03:49.305Z,93.6784
2023-03-26T07:04:49.483Z,93.9459
2023-03-26T07:05:49.521Z,94.1943
2023-03-26T07:06:49.434Z,94.3673
2023-03-26T07:07:50.578Z,93.2709
2023-03-26T07:08:51.725Z,91.7739
2023-03-26T07:09:51.975Z,90.3044
2023-03-26T07:10:52.906Z,90.3466
2023-03-26T07:12:53.100Z,89.0986
2023-03-26T07:13:53.241Z,86.8404
2023-03-26T07:14:53.181Z,87.8402
2023-03-26T07:15:54.257Z,85.6648
2023-03-26T07:16:55.325Z,86.2952
2023-03-26T07:17:56.433Z,86.8100
2023-03-26T07:18:56.377Z,85.2746
2023-03-26T07:19:57.464Z,85.3480
2023-03-26T07:20:58.464Z,86.5308
2023-03-26T07:23:00.416Z,86.8424
2023-03-26T07:24:01.441Z,86.2168
2023-03-26T07:25:02.504Z,86.1620
2023-03-26T07:26:03.517Z,86.5337
2023-03-26T07:27:04.528Z,85.7021
2023-03-26T07:28:05.578Z,85.3526
2023-03-26T07:29:06.628Z,85.4864
2023-03-26T07:30:07.667Z,86.3872
2023-03-26T07:31:08.715Z,86.6722
2023-03-26T07:33:10.738Z,87.4873
2023-03-26T07:35:12.623Z,87.5507
2023-03-26T07:36:13.666Z,88.5137
2023-03-26T07:37:14.717Z,88.3322
2023-03-26T07:38:15.760Z,88.5720
2023-03-26T07:40:17.727Z,87.5272
2023-03-26T07:41:18.792Z,87.8721
2023-03-26T07:42:19.847Z,87.5363
2023-03-26T07:43:20.905Z,87.3014
2023-03-26T07:44:21.958Z,87.5988
2023-03-26T07:46:23.854Z,88.5796
2023-03-26T07:47:24.862Z,87.4031
2023-03-26T07:48:25.901Z,86.6440
2023-03-26T07:49:26.981Z,86.8674
2023-03-26T07:50:28.008Z,87.6806
2023-03-26T07:51:29.051Z,87.2288
2023-03-26T07:52:30.118Z,86.4572
2023-03-26T07:53:31.159Z,86.6164
2023-03-26T07:54:32.209Z,86.9020
2023-03-26T07:55:33.296Z,87.4030
2023-03-26T07:56:34.380Z,87.2415
2023-03-26T07:57:34.362Z,86.8894
2023-03-26T07:58:35.418Z,86.6221
2023-03-26T07:59:36.471Z,87.2590
2023-03-26T08:00:37.503Z,88.7713
2023-03-26T08:01:38.566Z,88.6736
2023-03-26T08:02:39.623Z,89.0672
2023-03-26T08:03:40.666Z,88.2232
2023-03-26T08:04:41.895Z,87.1439
2023-03-26T08:05:41.866Z,87.9281
2023-03-26T08:06:42.889Z,87.0622
2023-03-26T08:07:43.927Z,87.3366
2023-03-26T08:08:44.981Z,88.2913
2023-03-26T08:09:46.033Z,89.8119
2023-03-26T08:10:47.091Z,89.5083
2023-03-26T08:11:48.147Z,89.2493
2023-03-26T08:12:49.195Z,89.8017
2023-03-26T08:13:50.219Z,89.7950
2023-03-26T08:14:51.245Z,89.4905
2023-03-26T08:15:52.284Z,88.9966
2023-03-26T08:16:53.366Z,89.0178
2023-03-26T08:18:55.310Z,89.3520
2023-03-26T08:19:56.337Z,88.8262
2023-03-26T08:20:57.420Z,88.6541
2023-03-26T08:21:58.471Z,88.9811
2023-03-26T08:22:59.528Z,89.2998
2023-03-26T08:24:00.560Z,89.0067
2023-03-26T08:25:01.628Z,89.1746
2023-03-26T08:26:02.686Z,89.7076
2023-03-26T08:27:03.757Z,90.2406
2023-03-26T08:28:04.790Z,90.0221
2023-03-26T08:30:06.703Z,90.4120
2023-03-26T08:31:07.826Z,90.9634
2023-03-26T08:32:08.840Z,90.9699
2023-03-26T08:33:09.854Z,90.3978
2023-03-26T08:34:10.938Z,90.2108
2023-03-26T08:35:11.981Z,90.4846
2023-03-26T08:36:13.035Z,91.0071
2023-03-26T08:38:14.993Z,90.3055
2023-03-26T08:40:16.884Z,89.9492
2023-03-26T08:41:17.935Z,90.5119
2023-03-26T08:43:19.899Z,89.9091
2023-03-26T08:44:20.999Z,89.8390
2023-03-26T08:45:22.066Z,89.7094
2023-03-26T08:46:23.207Z,89.2540
2023-03-26T08:47:24.296Z,89.1149
2023-03-26T08:48:25.343Z,88.8032
2023-03-26T08:50:27.307Z,88.9482
2023-03-26T08:51:28.368Z,89.0396
2023-03-26T08:52:29.390Z,89.3531
2023-03-26T08:53:30.460Z,89.5196
2023-03-26T08:54:31.576Z,88.2635
2023-03-26T08:55:32.661Z,88.5906
2023-03-26T08:57:34.618Z,89.0651
2023-03-26T08:58:35.688Z,89.1409
2023-03-26T08:59:36.859Z,89.3119
2023-03-26T09:02:38.942Z,89.5654
2023-03-26T09:03:38.908Z,88.8292
2023-03-26T09:04:38.856Z,88.4646
2023-03-26T09:05:40.020Z,89.7916
2023-03-26T09:06:41.272Z,90.4254
2023-03-26T09:07:41.210Z,89.9828
2023-03-26T09:08:53.682Z,90.3761
2023-03-26T09:09:43.440Z,89.9548
2023-03-26T09:10:43.362Z,90.0074
2023-03-26T09:11:44.549Z,90.1573
2023-03-26T09:12:45.757Z,90.2216
2023-03-26T09:13:45.720Z,90.9513
2023-03-26T09:14:46.908Z,90.3078
2023-03-26T09:15:48.231Z,89.3340
2023-03-26T09:16:48.235Z,89.3807
2023-03-26T09:17:49.488Z,88.5924
2023-03-26T09:18:49.506Z,86.8917
2023-03-26T09:19:50.638Z,88.5172
2023-03-26T09:20:51.822Z,88.9333
2023-03-26T09:21:52.986Z,88.4930
2023-03-26T09:22:54.125Z,88.7225
2023-03-26T09:23:55.279Z,88.4744
2023-03-26T09:24:55.243Z,87.7511
2023-03-26T09:25:56.408Z,88.1252
2023-03-26T09:26:56.401Z,87.3093
2023-03-26T09:27:57.564Z,87.9656
2023-03-26T09:28:58.690Z,87.9790
2023-03-26T09:29:59.839Z,86.4216
2023-03-26T09:31:00.975Z,85.6869
2023-03-26T09:32:02.124Z,85.8346
2023-03-26T09:33:03.290Z,85.8308
2023-03-26T09:34:03.320Z,86.7958
2023-03-26T09:35:04.445Z,86.5865
2023-03-26T09:36:05.626Z,86.7220
2023-03-26T09:37:06.809Z,86.2122
2023-03-26T09:38:06.737Z,86.2774
2023-03-26T09:39:07.930Z,86.3399
2023-03-26T09:40:07.894Z,85.7447
2023-03-26T09:41:09.044Z,85.5496
2023-03-26T09:42:10.231Z,85.4575
2023-03-26T09:43:11.373Z,85.2556
2023-03-26T09:44:12.542Z,84.5752
2023-03-26T09:45:13.681Z,84.9858
2023-03-26T09:46:14.913Z,83.9124
2023-03-26T09:47:14.922Z,84.4141
2023-03-26T09:48:16.100Z,84.9927
2023-03-26T09:49:16.090Z,84.3811
2023-03-26T09:50:16.078Z,84.3622
2023-03-26T09:52:17.092Z,83.7835
2023-03-26T09:54:18.089Z,83.7130
2023-03-26T09:55:18.078Z,83.2160
2023-03-26T09:56:19.209Z,81.7187
2023-03-26T09:57:20.444Z,82.5427
2023-03-26T09:58:20.403Z,80.8967
2023-03-26T09:59:21.551Z,79.8453
2023-03-26T10:00:22.758Z,79.7358
2023-03-26T10:01:22.746Z,81.0562
2023-03-26T10:03:25.710Z,81.3111
2023-03-26T10:04:24.544Z,81.2805
2023-03-26T10:05:24.534Z,82.1577
2023-03-26T10:06:25.729Z,81.3550
2023-03-26T10:08:26.855Z,81.4550
2023-03-26T10:09:26.812Z,82.0519
2023-03-26T10:10:28.003Z,81.8742
2023-03-26T10:11:29.163Z,81.3878
2023-03-26T10:12:29.363Z,81.3866
2023-03-26T10:13:29.380Z,81.5671
2023-03-26T10:14:29.549Z,81.6848
2023-03-26T10:15:29.575Z,81.0522
2023-03-26T10:16:29.555Z,80.8784
2023-03-26T10:17:29.565Z,79.9344
2023-03-26T10:18:30.136Z,80.2617
2023-03-26T10:19:30.337Z,80.9719
2023-03-26T10:20:30.423Z,79.6319
2023-03-26T10:21:30.443Z,78.9150
2023-03-26T10:22:30.457Z,78.9732
2023-03-26T10:23:30.477Z,78.9256
2023-03-26T10:24:30.470Z,78.7199
2023-03-26T10:26:31.776Z,79.5942
2023-03-26T10:28:32.797Z,79.1938
2023-03-26T10:29:32.828Z,79.7317
2023-03-26T10:30:32.899Z,79.0784
2023-03-26T10:31:32.867Z,78.7699
2023-03-26T10:32:32.961Z,78.1480
2023-03-26T10:33:32.918Z,78.7290
2023-03-26T10:34:34.053Z,78.9709
2023-03-26T10:35:35.293Z,78.6406
2023-03-26T10:36:35.316Z,77.9465
2023-03-26T10:40:38.424Z,78.0750
2023-03-26T10:42:39.338Z,79.0746
2023-03-26T10:43:40.541Z,78.9423
2023-03-26T10:44:40.512Z,79.2072
2023-03-26T10:45:41.808Z,78.7841
2023-03-26T10:46:41.769Z,78.6133
2023-03-26T10:47:41.893Z,79.3250
2023-03-26T10:48:41.910Z,78.7022
2023-03-26T10:49:42.350Z,78.7076
2023-03-26T10:50:42.494Z,78.5110
2023-03-26T10:51:42.551Z,76.6561
2023-03-26T10:52:42.554Z,77.2973
2023-03-26T10:53:42.542Z,76.1217
2023-03-26T10:55:43.607Z,77.9903
2023-03-26T10:56:43.729Z,78.0594
2023-03-26T10:57:43.966Z,77.9458
2023-03-26T10:58:48.775Z,77.8258
2023-03-26T10:59:45.263Z,77.0589
2023-03-26T11:00:45.305Z,76.0642
2023-03-26T11:01:45.480Z,76.2171
2023-03-26T11:02:45.522Z,76.8206
2023-03-26T11:03:45.504Z,76.5823
2023-03-26T11:04:45.483Z,76.5867
2023-03-26T11:05:45.478Z,76.7486
2023-03-26T11:06:45.580Z,77.1318
2023-03-26T11:07:45.594Z,76.6348
2023-03-26T11:08:46.806Z,76.1257
2023-03-26T11:09:46.823Z,75.0882
2023-03-26T11:11:47.941Z,75.2071
2023-03-26T11:13:49.049Z,76.1460
2023-03-26T11:14:49.132Z,76.4349
2023-03-26T11:15:49.149Z,76.1270
2023-03-26T11:16:49.193Z,74.5235
2023-03-26T11:18:50.378Z,72.8993
2023-03-26T11:19:51.975Z,73.0989
2023-03-26T11:20:50.808Z,72.2677
2023-03-26T11:21:50.950Z,74.0081
2023-03-26T11:22:50.975Z,72.0793
2023-03-26T11:24:04.703Z,71.7991
2023-03-26T11:24:53.007Z,71.8681
2023-03-26T11:25:53.000Z,72.1186
2023-03-26T11:26:54.203Z,72.4155
2023-03-26T11:29:56.333Z,72.1555
2023-03-26T11:30:56.531Z,72.4148
2023-03-26T11:31:56.838Z,72.2673
2023-03-26T11:32:56.912Z,72.1882
2023-03-26T11:34:58.149Z,71.9125
2023-03-26T11:36:59.329Z,70.1598
2023-03-26T11:37:59.363Z,71.0890
2023-03-26T11:38:59.416Z,71.7313
2023-03-26T11:39:59.517Z,71.9540
2023-03-26T11:40:59.701Z,71.4687
2023-03-26T11:41:59.832Z,72.0250
2023-03-26T11:43:00.026Z,70.6578
2023-03-26T11:45:01.317Z,70.4337
2023-03-26T11:46:02.257Z,69.6600
2023-03-26T11:47:02.417Z,70.2953
2023-03-26T11:48:02.481Z,70.2591
2023-03-26T11:49:02.577Z,70.8255
2023-03-26T11:50:02.649Z,70.2445
2023-03-26T11:51:02.975Z,69.0890
2023-03-26T11:52:03.018Z,70.0578
2023-03-26T11:53:03.097Z,69.4258
2023-03-26T11:54:03.186Z,69.8607
2023-03-26T11:55:03.279Z,69.6528
2023-03-26T11:56:03.334Z,69.3344
2023-03-26T11:57:04.864Z,69.3016
2023-03-26T11:58:04.276Z,67.7280
2023-03-26T11:59:04.349Z,67.8069
2023-03-26T12:00:04.529Z,68.5696
2023-03-26T12:01:04.608Z,68.7511
2023-03-26T12:03:05.844Z,67.3610
2023-03-26T12:04:06.187Z,66.5702
2023-03-26T12:05:06.227Z,65.7581
2023-03-26T12:06:06.320Z,66.1166
2023-03-26T12:07:06.464Z,67.0277
2023-03-26T12:08:06.757Z,67.0567
2023-03-26T12:09:06.834Z,67.4401
2023-03-26T12:10:18.861Z,68.0888
2023-03-26T12:11:08.127Z,67.6532
2023-03-26T12:12:08.231Z,68.0866
2023-03-26T12:13:08.447Z,68.1132
2023-03-26T12:14:08.544Z,65.9523
2023-03-26T12:15:08.662Z,66.5527
2023-03-26T12:16:08.775Z,66.9003
2023-03-26T12:17:08.874Z,67.0031
2023-03-26T12:18:09.041Z,65.8816
2023-03-26T12:19:09.115Z,64.5663
2023-03-26T12:20:09.193Z,63.9079
2023-03-26T12:21:09.353Z,64.8436
2023-03-26T12:22:09.479Z,64.4213
2023-03-26T12:23:09.572Z,64.2810
2023-03-26T12:24:09.733Z,64.5684
2023-03-26T12:25:09.835Z,65.3870
2023-03-26T12:26:09.961Z,65.4926
2023-03-26T12:27:10.043Z,65.4999
2023-03-26T12:28:10.160Z,65.2142
2023-03-26T12:30:11.373Z,66.7142
2023-03-26T12:31:11.522Z,66.6903
2023-03-26T12:32:11.660Z,67.6357
2023-03-26T12:33:11.754Z,70.1659
2023-03-26T12:34:11.933Z,72.1133
2023-03-26T12:35:12.059Z,72.8348
2023-03-26T12:36:12.180Z,74.3152
2023-03-26T12:37:12.289Z,72.7902
2023-03-26T12:38:12.367Z,71.9919
2023-03-26T12:39:43.200Z,70.8794
2023-03-26T12:40:17.110Z,71.3206
2023-03-26T12:44:46.550Z,70.3926
2023-03-26T12:44:48.989Z,69.8216
2023-03-26T12:44:50.058Z,69.2631
2023-03-26T12:44:51.171Z,70.7776
2023-03-26T12:45:13.902Z,69.3458
2023-03-26T12:47:55.532Z,67.9175
2023-03-26T12:47:57.244Z,67.4627
2023-03-26T12:48:15.315Z,67.5561
2023-03-26T12:51:16.546Z,63.4482
2023-03-26T12:52:16.673Z,61.2789
2023-03-26T12:53:16.767Z,60.1530
2023-03-26T12:54:16.847Z,59.1665
2023-03-26T12:55:16.974Z,58.9700
2023-03-26T12:56:18.061Z,60.4780
2023-03-26T12:57:18.403Z,60.1255
2023-03-26T12:58:18.674Z,60.7002
2023-03-26T12:59:18.811Z,59.7205
2023-03-26T13:00:18.904Z,60.0432
2023-03-26T13:01:19.115Z,60.2245
2023-03-26T13:02:19.208Z,60.4074
2023-03-26T13:03:19.336Z,59.7176
2023-03-26T13:04:19.641Z,62.8325
2023-03-26T13:06:20.903Z,62.6756
2023-03-26T13:07:21.017Z,63.5053
2023-03-26T13:08:21.079Z,66.0037
2023-03-26T13:09:21.196Z,66.8656
2023-03-26T13:10:21.334Z,66.4558
2023-03-26T13:11:21.508Z,66.7163
2023-03-26T13:12:21.653Z,66.7832
2023-03-26T13:13:21.774Z,66.3515
2023-03-26T13:14:21.892Z,66.4499
2023-03-26T13:15:22.089Z,66.2761
2023-03-26T13:16:22.464Z,65.3642